CheckWX is a tool to help pilots better visualize weather data.  It is not intended as a substitute for an official pre-flight weather briefing.

21:46:31 UTC

KAGS METAR
Augusta Regional at Bush Field Airport
Augusta, Georgia, USA
Current

54 mins ago

KAGS 232053Z 04006KT 1SM BR OVC004 11/11 A3015 RMK AO2 CIG 003V007 SLP207 T01110106 56016 RVRNO
Observed
Feb-23 @ 20:53 UTC
Wind
  • 040° at 6 KTS
Visibility
1 SM
Flight Rules
LIFR
Conditions
Mist
Cloud Levels
  • Overcast at 400' AGL
Temperature
11°C / 52°F
Dewpoint
11°C / 52°F
Humidity
100%
Altimeter
30.15" Hg
Pressure
1020.7 hPa
Previous

2 hours ago

KAGS 231953Z 05003KT 1SM BR OVC004 11/11 A3015 RMK AO2 SLP207 T01110106 RVRNO
Observed
Feb-23 @ 19:53 UTC
Wind
  • 050° at 3 KTS
Visibility
1 SM
Flight Rules
LIFR
Conditions
Mist
Cloud Levels
  • Overcast at 400' AGL
Temperature
11°C / 52°F
Dewpoint
11°C / 52°F
Humidity
100%
Altimeter
30.15" Hg
Pressure
1020.7 hPa
Previous

3 hours ago

KAGS 231853Z 02006KT 1SM BR OVC004 11/10 A3016 RMK AO2 SLP211 T01110100 RVRNO
Observed
Feb-23 @ 18:53 UTC
Wind
  • 020° at 6 KTS
Visibility
1 SM
Flight Rules
LIFR
Conditions
Mist
Cloud Levels
  • Overcast at 400' AGL
Temperature
11°C / 52°F
Dewpoint
10°C / 50°F
Humidity
94%
Altimeter
30.16" Hg
Pressure
1021.1 hPa